createdAt,value
2018-04-10T00:00:38.464Z,64.70
2018-04-10T00:03:06.210Z,65.00
2018-04-10T00:05:34.070Z,65.10
2018-04-10T00:08:01.743Z,64.90
2018-04-10T00:10:30.173Z,64.60
2018-04-10T00:12:57.909Z,64.50
2018-04-10T00:15:25.617Z,64.30
2018-04-10T00:17:53.428Z,64.30
2018-04-10T00:20:21.175Z,64.30
2018-04-10T00:22:49.027Z,64.30
2018-04-10T00:25:16.742Z,64.30
2018-04-10T00:27:44.465Z,64.50
2018-04-10T00:30:12.151Z,64.50
2018-04-10T00:32:39.829Z,64.50
2018-04-10T00:35:07.566Z,64.50
2018-04-10T00:37:35.317Z,64.50
2018-04-10T00:40:03.066Z,64.70
2018-04-10T00:42:30.919Z,65.00
2018-04-10T00:44:58.770Z,65.00
2018-04-10T00:47:26.583Z,65.00
2018-04-10T00:49:54.476Z,65.10
2018-04-10T00:52:22.158Z,65.10
2018-04-10T00:54:50.638Z,65.00
2018-04-10T00:57:18.354Z,65.00
2018-04-10T00:59:46.086Z,64.90
2018-04-10T01:02:13.939Z,64.80
2018-04-10T01:04:42.099Z,64.80
2018-04-10T01:07:09.949Z,64.90
2018-04-10T01:09:37.802Z,64.80
2018-04-10T01:12:05.478Z,64.90
2018-04-10T01:14:34.119Z,65.10
2018-04-10T01:17:01.970Z,65.10
2018-04-10T01:19:29.822Z,65.10
2018-04-10T01:21:57.572Z,65.20
2018-04-10T01:24:25.426Z,65.50
2018-04-10T01:26:53.176Z,65.60
2018-04-10T01:29:20.855Z,65.20
2018-04-10T01:31:49.336Z,65.10
2018-04-10T01:34:17.140Z,65.00
2018-04-10T01:36:44.992Z,65.00
2018-04-10T01:39:12.843Z,64.80
2018-04-10T01:41:40.517Z,64.60
2018-04-10T01:44:09.161Z,64.80
2018-04-10T01:46:37.012Z,64.70
2018-04-10T01:49:04.864Z,64.70
2018-04-10T01:51:32.716Z,65.10
2018-04-10T01:54:00.469Z,65.00
2018-04-10T01:56:28.318Z,64.90
2018-04-10T01:58:56.174Z,65.00
2018-04-10T02:01:23.898Z,65.10
2018-04-10T02:03:51.582Z,65.20
2018-04-10T02:06:19.419Z,65.10
2018-04-10T02:08:47.169Z,65.20
2018-04-10T02:11:15.020Z,65.30
2018-04-10T02:13:42.880Z,65.30
2018-04-10T02:16:10.561Z,65.30
2018-04-10T02:18:38.293Z,65.30
2018-04-10T02:21:06.838Z,65.40
2018-04-10T02:23:34.693Z,65.20
2018-04-10T02:26:02.541Z,65.30
2018-04-10T02:28:30.393Z,65.20
2018-04-10T02:30:58.678Z,65.10
2018-04-10T02:33:26.509Z,64.90
2018-04-10T02:35:55.180Z,64.80
2018-04-10T02:38:22.929Z,64.70
2018-04-10T02:40:50.781Z,64.80
2018-04-10T02:43:18.530Z,64.80
2018-04-10T02:45:46.389Z,64.90
2018-04-10T02:48:14.236Z,65.00
2018-04-10T02:50:41.910Z,64.80
2018-04-10T02:53:10.389Z,64.50
2018-04-10T02:55:38.197Z,64.40
2018-04-10T02:58:06.050Z,64.40
2018-04-10T03:00:33.901Z,64.60
2018-04-10T03:03:01.754Z,64.80
2018-04-10T03:05:29.475Z,65.00
2018-04-10T03:07:57.355Z,65.40
2018-04-10T03:10:25.105Z,65.70
2018-04-10T03:12:52.786Z,65.90
2018-04-10T03:15:21.322Z,66.20
2018-04-10T03:17:49.173Z,66.10
2018-04-10T03:20:17.025Z,66.30
2018-04-10T03:22:44.776Z,66.00
2018-04-10T03:25:12.497Z,65.80
2018-04-10T03:27:40.221Z,65.30
2018-04-10T03:30:07.901Z,65.10
2018-04-10T03:32:35.633Z,65.00
2018-04-10T03:35:03.314Z,65.00
2018-04-10T03:37:31.065Z,65.00
2018-04-10T03:39:58.917Z,64.90
2018-04-10T03:42:26.771Z,64.80
2018-04-10T03:44:54.624Z,64.70
2018-04-10T03:47:22.476Z,64.50
2018-04-10T03:49:50.328Z,64.50
2018-04-10T03:52:18.178Z,64.60
2018-04-10T03:54:45.927Z,64.70
2018-04-10T03:57:13.780Z,64.50
2018-04-10T03:59:41.529Z,64.60
2018-04-10T04:02:09.206Z,64.60
2018-04-10T04:04:36.969Z,64.70
2018-04-10T04:07:04.723Z,64.70
2018-04-10T04:09:32.525Z,64.60
2018-04-10T04:12:00.318Z,64.70
2018-04-10T04:14:28.885Z,65.10
2018-04-10T04:17:09.292Z,65.50
2018-04-10T04:19:48.919Z,65.50
2018-04-10T04:22:28.647Z,65.80
2018-04-10T04:24:56.398Z,66.10
2018-04-10T04:27:24.249Z,66.00
2018-04-10T04:29:52.101Z,65.90
2018-04-10T04:32:19.963Z,65.80
2018-04-10T04:34:47.641Z,65.70
2018-04-10T04:37:15.324Z,65.30
2018-04-10T04:39:43.203Z,65.10
2018-04-10T04:42:11.257Z,65.20
2018-04-10T04:44:39.049Z,65.10
2018-04-10T04:47:06.857Z,65.20
2018-04-10T04:49:34.607Z,65.30
2018-04-10T04:52:02.458Z,65.30
2018-04-10T04:54:30.309Z,65.10
2018-04-10T04:56:58.162Z,65.00
2018-04-10T04:59:25.916Z,65.00
2018-04-10T05:01:53.646Z,64.80
2018-04-10T05:04:21.413Z,64.50
2018-04-10T05:06:49.265Z,64.50
2018-04-10T05:09:16.990Z,64.50
2018-04-10T05:11:44.763Z,64.50
2018-04-10T05:14:12.511Z,64.60
2018-04-10T05:16:40.235Z,64.70
2018-04-10T05:19:07.953Z,64.30
2018-04-10T05:21:35.760Z,64.20
2018-04-10T05:24:03.611Z,64.10
2018-04-10T05:26:31.465Z,64.30
2018-04-10T05:28:59.147Z,64.50
2018-04-10T05:31:27.677Z,64.70
2018-04-10T05:33:55.431Z,64.60
2018-04-10T05:36:23.196Z,64.80
2018-04-10T05:38:50.870Z,64.80
2018-04-10T05:41:18.550Z,65.20
2018-04-10T05:43:46.274Z,65.30
2018-04-10T05:46:13.975Z,65.50
2018-04-10T05:48:41.823Z,65.60
2018-04-10T05:51:09.675Z,65.70
2018-04-10T05:53:37.539Z,65.70
2018-04-10T05:56:05.380Z,66.00
2018-04-10T05:58:33.109Z,66.10
2018-04-10T06:01:00.802Z,66.20
2018-04-10T06:03:29.242Z,66.30
2018-04-10T06:05:56.993Z,67.00
2018-04-10T06:08:24.845Z,67.20
2018-04-10T06:10:52.697Z,66.40
2018-04-10T06:13:20.445Z,66.50
2018-04-10T06:15:48.312Z,66.70
2018-04-10T06:18:17.071Z,66.60
2018-04-10T06:20:44.865Z,66.50
2018-04-10T06:23:12.672Z,66.50
2018-04-10T06:25:40.524Z,66.60
2018-04-10T06:28:08.274Z,66.70
2018-04-10T06:30:36.125Z,66.80
2018-04-10T06:33:03.875Z,66.70
2018-04-10T06:35:31.630Z,66.70
2018-04-10T06:37:59.475Z,66.60
2018-04-10T06:40:27.327Z,66.50
2018-04-10T06:42:55.181Z,67.20
2018-04-10T06:45:22.932Z,66.50
2018-04-10T06:47:50.787Z,66.60
2018-04-10T06:50:18.639Z,66.80
2018-04-10T06:52:46.485Z,67.10
2018-04-10T06:55:14.238Z,67.50
2018-04-10T06:57:42.088Z,67.50
2018-04-10T07:00:09.938Z,67.60
2018-04-10T07:02:37.793Z,67.80
2018-04-10T07:05:05.644Z,67.90
2018-04-10T07:07:33.493Z,68.10
2018-04-10T07:10:01.243Z,68.40
2018-04-10T07:12:29.095Z,68.50
2018-04-10T07:14:57.151Z,68.70
2018-04-10T07:17:24.903Z,69.00
2018-04-10T07:19:52.651Z,69.20
2018-04-10T07:22:20.505Z,68.90
2018-04-10T07:24:48.252Z,69.00
2018-04-10T07:27:16.110Z,69.20
2018-04-10T07:29:43.957Z,69.40
2018-04-10T07:32:11.811Z,69.60
2018-04-10T07:34:39.661Z,69.50
2018-04-10T07:37:07.512Z,69.60
2018-04-10T07:39:35.303Z,69.70
2018-04-10T07:42:03.117Z,69.70
2018-04-10T07:44:30.967Z,69.80
2018-04-10T07:46:58.714Z,69.90
2018-04-10T07:49:26.981Z,69.90
2018-04-10T07:51:54.830Z,69.80
2018-04-10T07:54:22.682Z,70.20
2018-04-10T07:56:50.517Z,70.10
2018-04-10T07:59:19.101Z,70.30
2018-04-10T08:01:46.957Z,70.30
2018-04-10T08:04:14.805Z,69.90
2018-04-10T08:06:42.655Z,69.60
2018-04-10T08:09:10.408Z,69.50
2018-04-10T08:11:38.475Z,69.50
2018-04-10T08:14:06.314Z,69.60
2018-04-10T08:16:34.067Z,69.80
2018-04-10T08:19:01.914Z,69.70
2018-04-10T08:21:29.706Z,69.40
2018-04-10T08:23:58.336Z,69.30
2018-04-10T08:26:26.291Z,69.30
2018-04-10T08:28:54.041Z,69.20
2018-04-10T08:31:21.894Z,69.20
2018-04-10T08:33:49.742Z,69.20
2018-04-10T08:36:17.601Z,69.10
2018-04-10T08:38:45.666Z,68.90
2018-04-10T08:41:14.329Z,68.80
2018-04-10T08:43:42.175Z,68.70
2018-04-10T08:46:10.024Z,68.60
2018-04-10T08:48:37.774Z,68.60
2018-04-10T08:51:05.642Z,68.40
2018-04-10T08:53:33.479Z,68.30
2018-04-10T08:56:01.340Z,68.20
2018-04-10T08:58:29.181Z,68.00
2018-04-10T09:00:57.039Z,68.90
2018-04-10T09:03:24.887Z,68.10
2018-04-10T09:05:52.739Z,68.00
2018-04-10T09:08:20.540Z,68.00
2018-04-10T09:10:48.345Z,68.00
2018-04-10T09:13:16.191Z,68.70
2018-04-10T09:15:44.056Z,67.50
2018-04-10T09:18:11.895Z,67.20
2018-04-10T09:20:39.747Z,67.00
2018-04-10T09:23:07.601Z,66.80
2018-04-10T09:25:35.450Z,66.50
2018-04-10T09:28:03.625Z,66.30
2018-04-10T09:30:32.179Z,65.70
2018-04-10T09:32:59.906Z,65.70
2018-04-10T09:35:27.679Z,65.70
2018-04-10T09:37:55.642Z,65.60
2018-04-10T09:40:23.495Z,65.50
2018-04-10T09:42:51.182Z,65.30
2018-04-10T09:45:19.095Z,65.40
2018-04-10T09:47:46.940Z,66.40
2018-04-10T09:50:14.821Z,65.60
2018-04-10T09:52:43.298Z,65.30
2018-04-10T09:55:11.930Z,65.40
2018-04-10T09:57:39.781Z,65.40
2018-04-10T10:00:07.539Z,65.30
2018-04-10T10:02:35.380Z,66.10
2018-04-10T10:05:03.132Z,65.50
2018-04-10T10:07:32.722Z,66.20
2018-04-10T10:10:00.427Z,66.20
2018-04-10T10:12:28.221Z,66.60
2018-04-10T10:14:56.104Z,67.20
2018-04-10T10:17:24.030Z,67.10
2018-04-10T10:19:51.797Z,67.30
2018-04-10T10:22:20.347Z,67.40
2018-04-10T10:24:48.199Z,67.30
2018-04-10T10:27:16.051Z,67.30
2018-04-10T10:29:43.902Z,66.20
2018-04-10T10:32:11.652Z,66.10
2018-04-10T10:34:39.401Z,66.20
2018-04-10T10:37:07.252Z,67.10
2018-04-10T10:39:35.001Z,67.10
2018-04-10T10:42:02.855Z,67.20
2018-04-10T10:44:30.602Z,67.60
2018-04-10T10:46:58.453Z,66.60
2018-04-10T10:49:26.206Z,66.60
2018-04-10T10:51:54.059Z,67.40
2018-04-10T10:54:21.809Z,66.30
2018-04-10T10:56:49.659Z,66.50
2018-04-10T10:59:17.513Z,67.50
2018-04-10T11:01:45.310Z,67.90
2018-04-10T11:04:13.112Z,68.00
2018-04-10T11:06:40.965Z,67.70
2018-04-10T11:09:08.816Z,65.20
2018-04-10T11:11:36.564Z,66.70
2018-04-10T11:14:04.313Z,66.50
2018-04-10T11:16:32.167Z,66.70
2018-04-10T11:18:59.990Z,66.90
2018-04-10T11:21:27.870Z,66.10
2018-04-10T11:23:55.725Z,66.70
2018-04-10T11:26:23.576Z,67.00
2018-04-10T11:28:51.428Z,63.70
2018-04-10T11:31:19.177Z,64.10
2018-04-10T11:33:46.929Z,66.00
2018-04-10T11:36:14.783Z,66.00
2018-04-10T11:38:42.631Z,67.10
2018-04-10T11:41:10.483Z,67.10
2018-04-10T11:43:38.437Z,66.80
2018-04-10T11:46:06.290Z,67.20
2018-04-10T11:48:34.148Z,67.00
2018-04-10T11:51:01.992Z,67.10
2018-04-10T11:53:29.742Z,67.10
2018-04-10T11:55:57.696Z,66.30
2018-04-10T11:58:25.553Z,66.90
2018-04-10T12:00:53.405Z,67.10
2018-04-10T12:03:21.252Z,66.80
2018-04-10T12:05:49.001Z,67.00
2018-04-10T12:08:16.853Z,67.10
2018-04-10T12:10:44.707Z,67.20
2018-04-10T12:13:12.566Z,67.60
2018-04-10T12:15:40.410Z,67.40
2018-04-10T12:18:08.481Z,67.20
2018-04-10T12:20:36.316Z,67.00
2018-04-10T12:23:04.168Z,68.00
2018-04-10T12:25:31.928Z,67.30
2018-04-10T12:27:59.770Z,67.30
2018-04-10T12:30:27.629Z,67.40
2018-04-10T12:32:55.476Z,67.50
2018-04-10T12:35:23.326Z,67.60
2018-04-10T12:37:51.180Z,67.70
2018-04-10T12:40:19.030Z,67.70
2018-04-10T12:42:46.881Z,67.40
2018-04-10T12:45:14.630Z,62.90
2018-04-10T12:47:42.384Z,64.00
2018-04-10T12:50:10.234Z,64.80
2018-04-10T12:52:38.096Z,66.00
2018-04-10T12:55:06.152Z,66.80
2018-04-10T12:57:34.011Z,67.40
2018-04-10T13:00:02.662Z,67.90
2018-04-10T13:02:30.513Z,67.90
2018-04-10T13:04:58.367Z,68.00
2018-04-10T13:07:26.326Z,67.70
2018-04-10T13:09:54.382Z,68.30
2018-04-10T13:12:22.230Z,68.40
2018-04-10T13:14:49.980Z,68.70
2018-04-10T13:17:17.729Z,68.80
2018-04-10T13:19:46.001Z,68.80
2018-04-10T13:22:14.762Z,68.70
2018-04-10T13:24:42.512Z,68.70
2018-04-10T13:27:10.393Z,68.70
2018-04-10T13:29:38.932Z,69.20
2018-04-10T13:32:06.681Z,69.20
2018-04-10T13:34:34.534Z,67.90
2018-04-10T13:37:02.384Z,67.90
2018-04-10T13:39:30.237Z,68.50
2018-04-10T13:41:57.985Z,69.80
2018-04-10T13:44:25.785Z,69.20
2018-04-10T13:46:53.590Z,69.20
2018-04-10T13:49:21.448Z,69.20
2018-04-10T13:51:49.195Z,69.20
2018-04-10T13:54:17.095Z,69.10
2018-04-10T13:56:44.894Z,69.10
2018-04-10T13:59:12.746Z,69.30
2018-04-10T14:01:40.598Z,69.40
2018-04-10T14:04:08.450Z,69.70
2018-04-10T14:06:36.300Z,69.70
2018-04-10T14:09:04.094Z,69.60
2018-04-10T14:11:31.952Z,69.50
2018-04-10T14:13:59.769Z,69.40
2018-04-10T14:16:28.446Z,69.20
2018-04-10T14:18:56.382Z,69.40
2018-04-10T14:21:24.234Z,69.50
2018-04-10T14:23:52.085Z,69.90
2018-04-10T14:26:19.835Z,69.80
2018-04-10T14:28:47.891Z,69.60
2018-04-10T14:31:15.743Z,69.30
2018-04-10T14:33:43.595Z,69.20
2018-04-10T14:36:11.347Z,68.40
2018-04-10T14:38:39.098Z,68.10
2018-04-10T14:41:06.946Z,67.90
2018-04-10T14:43:34.696Z,68.00
2018-04-10T14:46:02.547Z,68.10
2018-04-10T14:48:30.398Z,67.90
2018-04-10T14:50:58.249Z,67.70
2018-04-10T14:53:26.135Z,67.60
2018-04-10T14:55:54.778Z,67.30
2018-04-10T14:58:22.729Z,68.10
2018-04-10T15:00:50.479Z,67.10
2018-04-10T15:03:18.169Z,67.00
2018-04-10T15:05:46.028Z,66.90
2018-04-10T15:08:14.656Z,66.70
2018-04-10T15:10:42.498Z,66.70
2018-04-10T15:13:10.354Z,66.60
2018-04-10T15:15:38.202Z,66.40
2018-04-10T15:18:05.951Z,66.10
2018-04-10T15:20:33.803Z,66.00
2018-04-10T15:23:01.657Z,65.90
2018-04-10T15:25:29.506Z,66.10
2018-04-10T15:27:57.364Z,66.20
2018-04-10T15:30:25.212Z,66.10
2018-04-10T15:32:52.969Z,66.10
2018-04-10T15:35:20.814Z,65.90
2018-04-10T15:37:48.566Z,65.90
2018-04-10T15:40:17.132Z,66.00
2018-04-10T15:42:44.984Z,66.00
2018-04-10T15:45:12.732Z,64.80
2018-04-10T15:47:40.583Z,66.40
2018-04-10T15:50:08.438Z,66.20
2018-04-10T15:52:37.105Z,66.30
2018-04-10T15:55:04.853Z,66.30
2018-04-10T15:57:32.706Z,66.60
2018-04-10T16:00:00.402Z,66.90
2018-04-10T16:02:28.323Z,66.80
2018-04-10T16:04:56.162Z,66.60
2018-04-10T16:07:23.912Z,66.50
2018-04-10T16:09:51.663Z,66.50
2018-04-10T16:12:19.411Z,66.10
2018-04-10T16:14:47.262Z,66.20
2018-04-10T16:17:15.011Z,66.40
2018-04-10T16:19:42.863Z,66.50
2018-04-10T16:22:10.613Z,66.70
2018-04-10T16:24:38.367Z,67.50
2018-04-10T16:27:06.213Z,67.20
2018-04-10T16:29:33.964Z,67.50
2018-04-10T16:32:01.814Z,67.60
2018-04-10T16:34:29.565Z,67.30
2018-04-10T16:36:57.620Z,67.40
2018-04-10T16:39:25.372Z,67.70
2018-04-10T16:41:53.122Z,66.60
2018-04-10T16:44:20.985Z,66.50
2018-04-10T16:46:48.826Z,66.50
2018-04-10T16:49:16.676Z,66.20
2018-04-10T16:51:44.426Z,66.30
2018-04-10T16:54:12.277Z,66.20
2018-04-10T16:56:40.026Z,66.30
2018-04-10T16:59:07.880Z,66.40
2018-04-10T17:01:35.731Z,66.30
2018-04-10T17:04:03.591Z,66.30
2018-04-10T17:06:31.422Z,66.40
2018-04-10T17:08:59.954Z,66.50
2018-04-10T17:11:27.750Z,66.40
2018-04-10T17:13:55.583Z,66.40
2018-04-10T17:16:23.358Z,66.50
2018-04-10T17:18:51.105Z,66.80
2018-04-10T17:21:18.958Z,66.70
2018-04-10T17:23:46.705Z,66.70
2018-04-10T17:26:14.565Z,66.40
2018-04-10T17:28:42.408Z,66.10
2018-04-10T17:31:10.264Z,65.40
2018-04-10T17:33:38.111Z,64.10
2018-04-10T17:36:05.965Z,62.30
2018-04-10T17:38:33.716Z,61.30
2018-04-10T17:41:01.462Z,60.50
2018-04-10T17:43:29.622Z,61.50
2018-04-10T17:45:57.780Z,61.70
2018-04-10T17:48:25.640Z,66.90
2018-04-10T17:50:53.487Z,73.00
2018-04-10T17:53:21.341Z,75.90
2018-04-10T17:55:49.199Z,75.40
2018-04-10T17:58:17.042Z,78.30
2018-04-10T18:00:44.793Z,74.60
2018-04-10T18:03:12.540Z,76.90
2018-04-10T18:05:40.391Z,77.30
2018-04-10T18:08:08.244Z,70.80
2018-04-10T18:10:36.093Z,71.80
2018-04-10T18:13:03.856Z,79.40
2018-04-10T18:15:31.698Z,81.00
2018-04-10T18:17:59.488Z,81.90
2018-04-10T18:20:28.843Z,84.90
2018-04-10T18:22:56.688Z,84.90
2018-04-10T18:25:24.539Z,86.50
2018-04-10T18:27:52.393Z,88.10
2018-04-10T18:30:20.252Z,89.70
2018-04-10T18:32:48.094Z,91.00
2018-04-10T18:35:15.845Z,91.20
2018-04-10T18:37:43.696Z,91.20
2018-04-10T18:40:11.445Z,90.30
2018-04-10T18:42:39.296Z,90.80
2018-04-10T18:45:07.968Z,93.10
2018-04-10T18:47:35.655Z,92.30
2018-04-10T18:50:04.284Z,90.80
2018-04-10T18:52:32.139Z,90.80
2018-04-10T18:54:59.988Z,91.70
2018-04-10T18:57:27.910Z,92.80
2018-04-10T18:59:55.698Z,93.20
2018-04-10T19:02:23.546Z,93.70
2018-04-10T19:04:51.402Z,94.20
2018-04-10T19:07:19.148Z,94.70
2018-04-10T19:09:47.003Z,94.50
2018-04-10T19:12:14.851Z,94.20
2018-04-10T19:14:42.556Z,93.40
2018-04-10T19:17:10.349Z,93.00
2018-04-10T19:19:38.043Z,91.40
2018-04-10T19:22:05.959Z,82.30
2018-04-10T19:24:33.804Z,83.60
2018-04-10T19:27:01.553Z,86.00
2018-04-10T19:29:29.242Z,86.80
2018-04-10T19:31:57.970Z,85.60
2018-04-10T19:34:25.824Z,85.50
2018-04-10T19:36:53.580Z,87.60
2018-04-10T19:39:21.474Z,88.80
2018-04-10T19:41:49.295Z,89.40
2018-04-10T19:44:17.130Z,90.00
2018-04-10T19:46:44.884Z,91.00
2018-04-10T19:49:12.603Z,92.20
2018-04-10T19:51:40.382Z,93.20
2018-04-10T19:54:08.115Z,93.10
2018-04-10T19:56:35.824Z,93.60
2018-04-10T19:59:03.546Z,93.90
2018-04-10T20:01:32.054Z,93.70
2018-04-10T20:03:59.739Z,93.70
2018-04-10T20:06:27.730Z,94.10
2018-04-10T20:08:58.598Z,93.90
2018-04-10T20:11:26.573Z,93.60
2018-04-10T20:13:54.323Z,93.60
2018-04-10T20:16:22.174Z,93.20
2018-04-10T20:18:50.538Z,92.50
2018-04-10T20:21:18.211Z,92.20
2018-04-10T20:23:45.940Z,91.50
2018-04-10T20:26:13.610Z,92.00
2018-04-10T20:28:42.098Z,91.50
2018-04-10T20:31:09.878Z,91.40
2018-04-10T20:33:37.647Z,90.90
2018-04-10T20:36:05.499Z,90.70
2018-04-10T20:38:33.352Z,91.70
2018-04-10T20:41:01.103Z,92.30
2018-04-10T20:43:28.850Z,92.00
2018-04-10T20:45:56.721Z,91.80
2018-04-10T20:48:24.453Z,91.80
2018-04-10T20:50:52.160Z,91.60
2018-04-10T20:53:20.063Z,92.10
2018-04-10T20:55:48.725Z,91.50
2018-04-10T20:58:16.476Z,91.30
2018-04-10T21:00:44.325Z,91.20
2018-04-10T21:03:12.076Z,91.50
2018-04-10T21:05:39.824Z,92.30
2018-04-10T21:08:07.676Z,91.70
2018-04-10T21:10:35.426Z,91.50
2018-04-10T21:13:03.278Z,91.20
2018-04-10T21:15:31.129Z,91.20
2018-04-10T21:17:58.984Z,91.00
2018-04-10T21:20:26.836Z,90.20
2018-04-10T21:22:54.586Z,89.50
2018-04-10T21:25:22.438Z,89.80
2018-04-10T21:27:50.288Z,89.90
2018-04-10T21:30:18.141Z,89.60
2018-04-10T21:32:46.614Z,91.40
2018-04-10T21:35:14.298Z,91.20
2018-04-10T21:37:42.146Z,91.80
2018-04-10T21:40:09.956Z,92.00
2018-04-10T21:42:43.565Z,92.60
2018-04-10T21:45:11.395Z,90.60
2018-04-10T21:47:39.186Z,88.90
2018-04-10T21:50:06.995Z,89.90
2018-04-10T21:52:34.902Z,89.00
2018-04-10T21:55:02.699Z,88.10
2018-04-10T21:57:30.550Z,88.30
2018-04-10T21:59:58.402Z,88.80
2018-04-10T22:02:26.154Z,91.20
2018-04-10T22:04:53.862Z,90.60
2018-04-10T22:07:21.531Z,91.00
2018-04-10T22:09:49.403Z,91.20
2018-04-10T22:12:17.151Z,91.40
2018-04-10T22:14:45.005Z,91.20
2018-04-10T22:17:12.857Z,90.60
2018-04-10T22:19:40.710Z,91.10
2018-04-10T22:22:08.559Z,91.10
2018-04-10T22:24:36.410Z,91.20
2018-04-10T22:27:04.262Z,91.70
2018-04-10T22:29:32.117Z,92.20
2018-04-10T22:31:59.906Z,92.10
2018-04-10T22:34:27.690Z,91.90
2018-04-10T22:36:55.539Z,92.00
2018-04-10T22:39:23.389Z,91.80
2018-04-10T22:41:51.138Z,91.00
2018-04-10T22:44:18.992Z,91.50
2018-04-10T22:46:46.847Z,92.70
2018-04-10T22:49:14.695Z,93.20
2018-04-10T22:51:42.545Z,91.80
2018-04-10T22:54:10.397Z,90.50
2018-04-10T22:56:38.087Z,90.50
2018-04-10T22:59:05.898Z,91.50
2018-04-10T23:01:33.748Z,91.80
2018-04-10T23:04:01.513Z,92.40
2018-04-10T23:06:29.356Z,92.80
2018-04-10T23:08:57.113Z,93.10
2018-04-10T23:11:24.971Z,92.60
2018-04-10T23:13:52.724Z,92.00
2018-04-10T23:16:20.514Z,91.70
2018-04-10T23:18:49.097Z,90.70
2018-04-10T23:21:16.907Z,90.70
2018-04-10T23:23:44.758Z,90.80
2018-04-10T23:26:12.608Z,90.70
2018-04-10T23:28:40.361Z,91.00
2018-04-10T23:31:08.113Z,90.70
2018-04-10T23:33:35.839Z,90.90
2018-04-10T23:36:03.523Z,91.00
2018-04-10T23:38:31.254Z,91.00
2018-04-10T23:40:59.153Z,90.20
2018-04-10T23:43:26.891Z,89.70
2018-04-10T23:45:54.758Z,88.10
2018-04-10T23:48:22.640Z,87.70
2018-04-10T23:50:51.119Z,89.70
2018-04-10T23:53:18.929Z,89.70
2018-04-10T23:55:46.674Z,89.10
2018-04-10T23:58:14.525Z,90.00
